Time,TemperatureF,DewpointF,PressureIn,WindDirection,WindDirectionDegrees,WindSpeedMPH,WindSpeedGustMPH,Humidity,HourlyPrecipIn,Conditions,Clouds,dailyrainin,SoftwareType,DateUTC
2013-03-21 00:28:00,24.5,20.9,26.47,SW,216,0.0,0.0,86,0.00,,,-99.99,VWS V12.07,2013-03-21 04:28:00,
2013-03-21 00:58:00,24.2,18.0,26.45,SW,220,0.0,0.0,77,0.00,,,-99.99,VWS V12.07,2013-03-21 04:58:00,
2013-03-21 01:28:00,23.6,16.5,26.43,SW,214,0.0,0.0,74,0.00,,,-99.99,VWS V12.07,2013-03-21 05:28:00,
2013-03-21 01:58:00,23.2,14.2,26.43,SSW,199,0.0,0.0,68,0.00,,,-99.99,VWS V12.07,2013-03-21 05:58:00,
2013-03-21 02:28:00,22.6,12.6,26.42,SSW,203,0.0,0.0,65,0.00,,,-99.99,VWS V12.07,2013-03-21 06:28:00,
2013-03-21 02:58:00,22.0,13.1,26.44,WSW,253,0.0,0.0,68,0.00,,,-99.99,VWS V12.07,2013-03-21 06:58:00,
2013-03-21 03:28:00,21.2,12.3,26.43,South,191,0.0,0.0,68,0.00,,,-99.99,VWS V12.07,2013-03-21 07:28:00,
2013-03-21 03:58:00,20.6,11.7,26.43,West,276,0.0,0.0,68,0.00,,,-99.99,VWS V12.07,2013-03-21 07:58:00,
2013-03-21 04:28:00,19.9,11.1,26.40,WNW,292,0.0,0.0,68,0.00,,,-99.99,VWS V12.07,2013-03-21 08:28:00,
2013-03-21 04:58:00,19.5,10.7,26.40,WNW,289,0.0,0.0,68,0.00,,,-99.99,VWS V12.07,2013-03-21 08:58:00,
2013-03-21 05:28:00,19.0,10.8,26.40,SW,219,0.0,0.0,70,0.00,,,-99.99,VWS V12.07,2013-03-21 09:28:00,
2013-03-21 05:58:00,18.5,11.0,26.39,WNW,301,0.0,0.0,72,0.00,,,-99.99,VWS V12.07,2013-03-21 09:58:00,
2013-03-21 06:28:00,17.7,10.5,26.41,WNW,288,0.0,0.0,73,0.00,,,-99.99,VWS V12.07,2013-03-21 10:28:00,
2013-03-21 06:58:00,17.4,10.9,26.41,SW,217,0.0,0.0,75,0.00,,,-99.99,VWS V12.07,2013-03-21 10:58:00,
2013-03-21 07:28:00,16.9,10.4,26.41,West,276,0.0,0.0,75,0.00,,,-99.99,VWS V12.07,2013-03-21 11:28:00,
2013-03-21 07:58:00,16.7,10.5,26.41,SW,228,0.0,0.0,76,0.00,,,-99.99,VWS V12.07,2013-03-21 11:58:00,
2013-03-21 08:28:00,16.9,11.2,26.42,SW,216,0.0,0.0,78,0.00,,,-99.99,VWS V12.07,2013-03-21 12:28:00,
2013-03-21 08:58:00,16.9,10.9,26.42,SW,222,0.0,0.0,77,0.00,,,-99.99,VWS V12.07,2013-03-21 12:58:00,
2013-03-21 09:28:00,17.9,10.4,26.43,WNW,282,0.0,0.0,72,0.00,,,-99.99,VWS V12.07,2013-03-21 13:28:00,
2013-03-21 09:58:00,19.3,10.8,26.44,SSW,204,0.0,0.0,69,0.00,,,-99.99,VWS V12.07,2013-03-21 13:58:00,
2013-03-21 10:28:00,18.7,9.9,26.45,SSW,202,0.0,0.0,68,0.00,,,-99.99,VWS V12.07,2013-03-21 14:28:00,
2013-03-21 10:58:00,19.9,11.4,26.45,SSW,193,0.0,0.0,69,0.00,,,-99.99,VWS V12.07,2013-03-21 14:58:00,
2013-03-21 11:28:00,20.6,12.1,26.44,SSW,206,0.0,0.0,69,0.00,,,-99.99,VWS V12.07,2013-03-21 15:28:00,
2013-03-21 11:58:00,21.5,12.9,26.46,SSW,198,0.0,0.0,69,0.00,,,-99.99,VWS V12.07,2013-03-21 15:58:00,
2013-03-21 12:28:00,22.9,14.3,26.46,West,260,0.0,0.0,69,0.00,,,-99.99,VWS V12.07,2013-03-21 16:28:00,
2013-03-21 12:58:00,23.5,14.5,26.46,SW,214,0.0,0.0,68,0.00,,,-99.99,VWS V12.07,2013-03-21 16:58:00,
2013-03-21 13:28:00,23.3,13.6,26.46,SW,233,0.0,0.0,66,0.00,,,-99.99,VWS V12.07,2013-03-21 17:28:00,
2013-03-21 13:58:00,23.5,13.5,26.46,SSW,213,0.0,0.0,65,0.00,,,-99.99,VWS V12.07,2013-03-21 17:58:00,
2013-03-21 14:28:00,23.6,13.6,26.46,SSW,212,0.0,0.0,65,0.00,,,-99.99,VWS V12.07,2013-03-21 18:28:00,
2013-03-21 14:58:00,22.9,12.2,26.46,West,264,0.0,0.0,63,0.00,,,-99.99,VWS V12.07,2013-03-21 18:58:00,
2013-03-21 15:28:00,23.5,12.8,26.46,SW,222,0.0,0.0,63,0.00,,,-99.99,VWS V12.07,2013-03-21 19:28:00,
2013-03-21 15:58:00,25.3,14.1,26.46,SW,224,0.0,0.0,62,0.00,,,-99.99,VWS V12.07,2013-03-21 19:58:00,
2013-03-21 16:28:00,25.6,12.9,26.46,SSW,195,0.0,0.0,58,0.00,,,-99.99,VWS V12.07,2013-03-21 20:28:00,
2013-03-21 16:58:00,26.2,13.1,26.47,SSW,204,0.0,0.0,57,0.00,,,-99.99,VWS V12.07,2013-03-21 20:58:00,
2013-03-21 17:28:00,26.2,13.4,26.46,WNW,293,0.0,0.0,58,0.00,,,-99.99,VWS V12.07,2013-03-21 21:28:00,
2013-03-21 17:58:00,26.0,12.1,26.47,SW,220,0.0,0.0,55,0.00,,,-99.99,VWS V12.07,2013-03-21 21:58:00,
2013-03-21 18:28:00,25.1,11.2,26.48,West,271,0.0,0.0,55,0.00,,,-99.99,VWS V12.07,2013-03-21 22:28:00,
2013-03-21 18:58:00,24.4,10.6,26.48,SSE,167,0.0,0.0,55,0.00,,,-99.99,VWS V12.07,2013-03-21 22:58:00,
2013-03-21 19:28:00,23.5,10.5,26.49,SW,230,0.0,0.0,57,0.00,,,-99.99,VWS V12.07,2013-03-21 23:28:00,
2013-03-21 19:58:00,22.9,10.7,26.49,WSW,242,0.0,0.0,59,0.00,,,-99.99,VWS V12.07,2013-03-21 23:58:00,
2013-03-21 20:28:00,22.4,10.6,26.50,West,280,0.0,0.0,60,0.00,,,-99.99,VWS V12.07,2013-03-22 00:28:00,
2013-03-21 20:58:00,22.3,10.2,26.50,West,281,0.0,0.0,59,0.00,,,-99.99,VWS V12.07,2013-03-22 00:58:00,
2013-03-21 21:33:00,21.9,10.2,26.52,NW,318,0.0,0.0,60,0.00,,,-99.99,VWS V12.07,2013-03-22 01:33:00,
2013-03-21 21:58:00,21.1,10.5,26.53,NW,306,0.0,0.0,63,0.00,,,-99.99,VWS V12.07,2013-03-22 01:58:00,
2013-03-21 22:28:00,20.0,10.1,26.53,NW,319,0.0,0.0,65,0.00,,,-99.99,VWS V12.07,2013-03-22 02:28:00,
2013-03-21 22:58:00,19.8,9.9,26.54,WNW,302,0.0,0.0,65,0.00,,,-99.99,VWS V12.07,2013-03-22 02:58:00,
2013-03-21 23:28:00,19.1,10.0,26.55,WNW,300,0.0,0.0,67,0.00,,,-99.99,VWS V12.07,2013-03-22 03:28:00,
2013-03-21 23:58:00,18.8,10.0,26.55,SW,219,0.0,0.0,68,0.00,,,-99.99,VWS V12.07,2013-03-22 03:58:00,